createdAt,value
2023-11-05T00:02:08.025Z,0.60
2023-11-05T00:05:14.969Z,0.60
2023-11-05T00:08:21.879Z,0.60
2023-11-05T00:11:29.738Z,0.50
2023-11-05T00:14:37.006Z,0.50
2023-11-05T00:17:45.241Z,0.40
2023-11-05T00:20:52.341Z,0.40
2023-11-05T00:23:59.288Z,0.30
2023-11-05T00:27:06.738Z,0.40
2023-11-05T00:30:14.405Z,0.40
2023-11-05T00:33:22.063Z,0.50
2023-11-05T00:36:30.028Z,0.40
2023-11-05T00:39:37.295Z,0.50
2023-11-05T00:42:44.482Z,0.90
2023-11-05T00:45:51.629Z,0.50
2023-11-05T00:48:58.561Z,0.40
2023-11-05T00:52:05.401Z,0.50
2023-11-05T00:55:13.104Z,0.40
2023-11-05T00:58:19.612Z,0.60
2023-11-05T01:01:27.213Z,0.40
2023-11-05T01:04:34.795Z,0.50
2023-11-05T01:07:42.551Z,0.50
2023-11-05T01:10:50.437Z,0.40
2023-11-05T01:13:57.590Z,0.40
2023-11-05T01:17:07.284Z,0.50
2023-11-05T01:20:14.234Z,0.70
2023-11-05T01:23:21.814Z,0.40
2023-11-05T01:26:28.946Z,0.40
2023-11-05T01:29:36.045Z,0.30
2023-11-05T01:32:43.432Z,0.40
2023-11-05T01:35:49.943Z,0.40
2023-11-05T01:38:56.887Z,0.50
2023-11-05T01:42:03.794Z,0.40
2023-11-05T01:45:12.136Z,0.50
2023-11-05T01:48:19.653Z,0.50
2023-11-05T01:51:26.508Z,0.40
2023-11-05T01:54:34.248Z,0.70
2023-11-05T01:57:41.359Z,0.50
2023-11-05T02:00:48.613Z,0.40
2023-11-05T02:03:55.405Z,0.40
2023-11-05T02:07:02.754Z,0.50
2023-11-05T02:10:09.382Z,0.80
2023-11-05T02:13:16.874Z,0.60
2023-11-05T02:16:24.322Z,0.40
2023-11-05T02:19:31.298Z,0.60
2023-11-05T02:22:38.859Z,1.40
2023-11-05T02:25:45.805Z,0.50
2023-11-05T02:28:53.416Z,0.70
2023-11-05T02:32:00.312Z,0.50
2023-11-05T02:35:07.725Z,0.50
2023-11-05T02:38:14.243Z,0.70
2023-11-05T02:41:21.738Z,0.80
2023-11-05T02:44:29.503Z,0.50
2023-11-05T02:47:36.756Z,0.70
2023-11-05T02:50:44.284Z,0.60
2023-11-05T02:53:51.747Z,0.80
2023-11-05T02:56:58.833Z,0.70
2023-11-05T03:00:06.299Z,0.70
2023-11-05T03:03:13.410Z,0.60
2023-11-05T03:06:20.257Z,0.70
2023-11-05T03:09:27.674Z,0.70
2023-11-05T03:12:34.762Z,0.60
2023-11-05T03:15:41.494Z,0.70
2023-11-05T03:18:49.067Z,0.80
2023-11-05T03:21:56.257Z,0.70
2023-11-05T03:25:03.834Z,0.50
2023-11-05T03:28:10.426Z,0.80
2023-11-05T03:31:17.671Z,0.80
2023-11-05T03:34:24.778Z,0.50
2023-11-05T03:37:32.168Z,0.80
2023-11-05T03:40:39.915Z,1.40
2023-11-05T03:43:46.821Z,0.60
2023-11-05T03:46:54.155Z,0.70
2023-11-05T03:50:01.774Z,0.70
2023-11-05T03:53:08.743Z,0.70
2023-11-05T03:56:15.770Z,0.70
2023-11-05T03:59:23.139Z,1.40
2023-11-05T04:02:30.284Z,0.80
2023-11-05T04:05:37.305Z,1.20
2023-11-05T04:08:44.511Z,0.70
2023-11-05T04:11:51.751Z,1.00
2023-11-05T04:14:59.033Z,1.00
2023-11-05T04:18:06.727Z,1.00
2023-11-05T04:21:14.586Z,1.60
2023-11-05T04:24:22.489Z,1.40
2023-11-05T04:27:29.990Z,0.80
2023-11-05T04:30:36.679Z,1.00
2023-11-05T04:33:44.962Z,0.70
2023-11-05T04:36:52.020Z,0.90
2023-11-05T04:39:58.679Z,0.60
2023-11-05T04:43:06.598Z,1.00
2023-11-05T04:46:13.754Z,0.80
2023-11-05T04:49:21.137Z,0.90
2023-11-05T04:52:28.343Z,1.10
2023-11-05T04:55:35.057Z,0.80
2023-11-05T04:58:42.806Z,0.70
2023-11-05T05:01:50.369Z,0.90
2023-11-05T05:04:57.581Z,0.90
2023-11-05T05:08:04.568Z,0.60
2023-11-05T05:11:11.647Z,1.00
2023-11-05T05:14:19.036Z,0.80
2023-11-05T05:17:25.858Z,0.90
2023-11-05T05:20:33.207Z,0.90
2023-11-05T05:23:40.454Z,1.10
2023-11-05T05:26:47.959Z,1.10
2023-11-05T05:29:55.320Z,1.10
2023-11-05T05:33:02.277Z,0.90
2023-11-05T05:36:09.353Z,0.80
2023-11-05T05:39:16.880Z,1.30
2023-11-05T05:42:23.997Z,1.80
2023-11-05T05:45:30.971Z,1.40
2023-11-05T05:48:38.827Z,1.00
2023-11-05T05:51:45.948Z,1.40
2023-11-05T05:54:53.358Z,1.70
2023-11-05T05:58:00.414Z,1.40
2023-11-05T06:01:08.220Z,1.10
2023-11-05T06:04:15.322Z,1.50
2023-11-05T06:07:22.436Z,1.40
2023-11-05T06:10:30.035Z,1.30
2023-11-05T06:13:37.058Z,1.10
2023-11-05T06:16:44.864Z,1.00
2023-11-05T06:19:51.917Z,1.60
2023-11-05T06:22:59.021Z,1.50
2023-11-05T06:26:06.265Z,1.30
2023-11-05T06:29:13.775Z,1.10
2023-11-05T06:32:21.476Z,1.00
2023-11-05T06:35:28.561Z,0.90
2023-11-05T06:38:36.284Z,0.80
2023-11-05T06:41:43.627Z,1.00
2023-11-05T06:44:50.855Z,1.00
2023-11-05T06:47:58.766Z,1.10
2023-11-05T06:51:05.373Z,0.70
2023-11-05T06:54:12.901Z,1.20
2023-11-05T06:57:20.346Z,1.00
2023-11-05T07:00:27.616Z,0.80
2023-11-05T07:03:35.466Z,1.60
2023-11-05T07:06:43.788Z,0.90
2023-11-05T07:09:50.423Z,0.80
2023-11-05T07:12:57.585Z,1.20
2023-11-05T07:16:04.626Z,1.00
2023-11-05T07:19:11.839Z,0.90
2023-11-05T07:22:19.311Z,1.20
2023-11-05T07:25:26.270Z,1.00
2023-11-05T07:28:33.737Z,1.20
2023-11-05T07:31:40.798Z,0.80
2023-11-05T07:34:49.867Z,0.80
2023-11-05T07:37:56.767Z,0.90
2023-11-05T07:41:04.368Z,0.80
2023-11-05T07:44:12.318Z,0.80
2023-11-05T07:47:19.357Z,1.20
2023-11-05T07:50:26.232Z,1.50
2023-11-05T07:53:33.695Z,1.10
2023-11-05T07:56:40.354Z,0.70
2023-11-05T07:59:48.278Z,0.80
2023-11-05T08:02:56.095Z,0.90
2023-11-05T08:06:03.436Z,0.60
2023-11-05T08:09:10.312Z,0.90
2023-11-05T08:12:17.213Z,1.00
2023-11-05T08:15:24.222Z,0.80
2023-11-05T08:18:31.635Z,0.50
2023-11-05T08:21:38.951Z,0.70
2023-11-05T08:24:46.200Z,1.00
2023-11-05T08:27:53.311Z,0.90
2023-11-05T08:31:01.612Z,0.70
2023-11-05T08:34:08.832Z,0.90
2023-11-05T08:37:15.896Z,0.80
2023-11-05T08:40:23.933Z,0.80
2023-11-05T08:43:32.218Z,0.70
2023-11-05T08:46:39.433Z,0.60
2023-11-05T08:49:47.107Z,0.80
2023-11-05T08:52:54.129Z,0.70
2023-11-05T08:56:01.744Z,0.70
2023-11-05T08:59:08.795Z,0.50
2023-11-05T09:02:16.527Z,0.60
2023-11-05T09:05:23.951Z,0.60
2023-11-05T09:08:31.475Z,0.30
2023-11-05T09:11:38.909Z,0.40
2023-11-05T09:14:45.891Z,0.40
2023-11-05T09:17:53.069Z,0.30
2023-11-05T09:21:00.436Z,0.40
2023-11-05T09:24:07.040Z,0.50
2023-11-05T09:27:14.562Z,0.40
2023-11-05T09:30:21.759Z,0.30
2023-11-05T09:33:28.564Z,0.40
2023-11-05T09:36:35.508Z,0.50
2023-11-05T09:39:42.756Z,0.80
2023-11-05T09:42:50.480Z,0.50
2023-11-05T09:45:58.187Z,0.60
2023-11-05T09:49:04.870Z,0.80
2023-11-05T09:52:11.870Z,3.60
2023-11-05T09:55:19.075Z,0.30
2023-11-05T09:58:25.954Z,0.30
2023-11-05T10:01:32.930Z,0.20
2023-11-05T10:04:39.921Z,0.20
2023-11-05T10:07:47.117Z,0.40
2023-11-05T10:10:54.155Z,0.50
2023-11-05T10:14:01.066Z,0.30
2023-11-05T10:17:08.349Z,0.60
2023-11-05T10:20:15.339Z,0.20
2023-11-05T10:23:22.215Z,0.20
2023-11-05T10:26:29.578Z,0.10
2023-11-05T10:29:36.234Z,0.20
2023-11-05T10:32:43.619Z,0.20
2023-11-05T10:35:50.968Z,0.20
2023-11-05T10:38:57.851Z,0.20
2023-11-05T10:42:05.131Z,0.30
2023-11-05T10:45:12.126Z,0.30
2023-11-05T10:48:19.564Z,0.60
2023-11-05T10:51:26.145Z,0.10
2023-11-05T10:54:33.127Z,0.20
2023-11-05T10:57:40.269Z,0.40
2023-11-05T11:00:46.924Z,0.30
2023-11-05T11:03:54.090Z,0.30
2023-11-05T11:07:01.376Z,0.20
2023-11-05T11:10:08.128Z,0.20
2023-11-05T11:13:15.336Z,0.30
2023-11-05T11:16:22.504Z,0.30
2023-11-05T11:19:29.198Z,0.40
2023-11-05T11:22:36.461Z,0.20
2023-11-05T11:25:43.184Z,0.30
2023-11-05T11:28:50.316Z,0.20
2023-11-05T11:31:57.518Z,0.20
2023-11-05T11:35:04.604Z,0.40
2023-11-05T11:38:11.236Z,0.20
2023-11-05T11:41:18.229Z,0.30
2023-11-05T11:44:25.169Z,0.20
2023-11-05T11:47:31.900Z,0.10
2023-11-05T11:50:40.029Z,0.30
2023-11-05T11:53:47.459Z,0.60
2023-11-05T11:56:54.173Z,0.10
2023-11-05T12:00:01.005Z,0.50
2023-11-05T12:03:08.437Z,0.20
2023-11-05T12:06:15.052Z,0.30
2023-11-05T12:09:22.525Z,0.30
2023-11-05T12:12:31.314Z,0.30
2023-11-05T12:15:37.920Z,0.30
2023-11-05T12:18:45.220Z,0.30
2023-11-05T12:21:52.735Z,0.60
2023-11-05T12:24:59.382Z,0.30
2023-11-05T12:28:06.651Z,0.40
2023-11-05T12:31:13.742Z,0.50
2023-11-05T12:34:22.627Z,0.70
2023-11-05T12:37:30.661Z,0.60
2023-11-05T12:40:37.713Z,0.40
2023-11-05T12:43:44.441Z,0.90
2023-11-05T12:46:51.921Z,0.70
2023-11-05T12:49:58.841Z,1.10
2023-11-05T12:53:05.864Z,1.20
2023-11-05T12:56:12.980Z,1.60
2023-11-05T12:59:19.970Z,1.30
2023-11-05T13:02:27.263Z,1.30
2023-11-05T13:05:34.272Z,1.20
2023-11-05T13:08:41.227Z,0.80
2023-11-05T13:11:48.218Z,0.60
2023-11-05T13:14:55.177Z,0.30
2023-11-05T13:18:02.533Z,0.20
2023-11-05T13:21:09.214Z,0.30
2023-11-05T13:24:16.710Z,0.30
2023-11-05T13:27:23.837Z,0.30
2023-11-05T13:30:30.560Z,0.10
2023-11-05T13:33:37.662Z,0.20
2023-11-05T13:36:44.784Z,0.10
2023-11-05T13:39:51.660Z,0.20
2023-11-05T13:42:59.002Z,0.30
2023-11-05T13:46:05.947Z,0.30
2023-11-05T13:49:13.546Z,0.20
2023-11-05T13:52:21.484Z,0.40
2023-11-05T13:55:28.615Z,0.20
2023-11-05T13:58:35.374Z,0.40
2023-11-05T14:01:42.438Z,0.40
2023-11-05T14:04:50.039Z,0.50
2023-11-05T14:07:56.707Z,0.30
2023-11-05T14:11:03.373Z,0.40
2023-11-05T14:14:10.274Z,0.50
2023-11-05T14:17:17.358Z,0.50
2023-11-05T14:20:24.049Z,0.30
2023-11-05T14:23:31.329Z,0.50
2023-11-05T14:26:38.167Z,0.80
2023-11-05T14:29:45.129Z,0.80
2023-11-05T14:32:52.686Z,0.80
2023-11-05T14:35:59.950Z,0.90
2023-11-05T14:39:07.221Z,1.40
2023-11-05T14:42:14.286Z,1.50
2023-11-05T14:45:27.558Z,1.50
2023-11-05T14:48:24.405Z,1.10
2023-11-05T14:51:31.198Z,0.70
2023-11-05T14:54:38.532Z,0.70
2023-11-05T14:57:45.260Z,0.50
2023-11-05T15:00:52.254Z,0.50
2023-11-05T15:03:59.660Z,0.40
2023-11-05T15:07:07.035Z,0.80
2023-11-05T15:10:14.331Z,0.60
2023-11-05T15:13:21.422Z,0.50
2023-11-05T15:16:28.614Z,0.40
2023-11-05T15:19:36.221Z,0.50
2023-11-05T15:22:43.563Z,0.80
2023-11-05T15:25:51.225Z,0.80
2023-11-05T15:28:58.749Z,0.80
2023-11-05T15:32:05.490Z,0.60
2023-11-05T15:35:12.769Z,0.70
2023-11-05T15:38:19.835Z,1.30
2023-11-05T15:41:27.000Z,1.20
2023-11-05T15:44:33.999Z,1.30
2023-11-05T15:47:40.881Z,1.80
2023-11-05T15:50:50.756Z,1.60
2023-11-05T15:53:57.916Z,1.80
2023-11-05T15:57:05.285Z,2.00
2023-11-05T16:00:12.332Z,2.40
2023-11-05T16:03:19.021Z,3.70
2023-11-05T16:06:26.294Z,4.30
2023-11-05T16:09:33.429Z,3.40
2023-11-05T16:12:40.889Z,3.80
2023-11-05T16:15:47.961Z,3.40
2023-11-05T16:18:54.664Z,2.80
2023-11-05T16:22:02.193Z,2.90
2023-11-05T16:25:09.014Z,2.60
2023-11-05T16:28:16.544Z,2.70
2023-11-05T16:31:23.503Z,3.10
2023-11-05T16:34:30.459Z,3.30
2023-11-05T16:37:37.909Z,3.70
2023-11-05T16:40:44.635Z,4.20
2023-11-05T16:43:51.703Z,3.60
2023-11-05T16:46:59.508Z,3.90
2023-11-05T16:50:06.220Z,3.70
2023-11-05T16:53:17.079Z,4.90
2023-11-05T16:56:13.899Z,4.70
2023-11-05T16:59:20.574Z,4.40
2023-11-05T17:02:28.224Z,5.00
2023-11-05T17:05:35.066Z,5.20
2023-11-05T17:08:42.008Z,5.40
2023-11-05T17:11:49.311Z,5.40
2023-11-05T17:14:56.416Z,5.90
2023-11-05T17:18:03.499Z,6.40
2023-11-05T17:21:10.604Z,7.40
2023-11-05T17:24:18.705Z,7.50
2023-11-05T17:27:26.293Z,7.10
2023-11-05T17:30:34.029Z,7.60
2023-11-05T17:33:41.025Z,7.60
2023-11-05T17:36:48.563Z,7.10
2023-11-05T17:39:55.745Z,7.40
2023-11-05T17:43:05.093Z,7.30
2023-11-05T17:46:03.717Z,8.00
2023-11-05T17:49:10.912Z,7.50
2023-11-05T17:52:18.496Z,9.20
2023-11-05T17:55:25.745Z,8.20
2023-11-05T17:58:32.911Z,9.30
2023-11-05T18:01:39.982Z,8.90
2023-11-05T18:04:47.616Z,9.00
2023-11-05T18:07:54.784Z,9.10
2023-11-05T18:11:02.181Z,8.30
2023-11-05T18:14:09.321Z,8.10
2023-11-05T18:17:16.321Z,10.50
2023-11-05T18:20:23.613Z,9.00
2023-11-05T18:23:30.714Z,8.20
2023-11-05T18:26:38.159Z,9.80
2023-11-05T18:29:45.526Z,7.30
2023-11-05T18:32:53.327Z,6.10
2023-11-05T18:36:00.263Z,7.10
2023-11-05T18:39:07.281Z,7.10
2023-11-05T18:42:14.710Z,7.50
2023-11-05T18:45:21.622Z,7.30
2023-11-05T18:48:29.345Z,6.50
2023-11-05T18:51:36.373Z,7.20
2023-11-05T18:54:43.409Z,6.90
2023-11-05T18:57:50.929Z,7.10
2023-11-05T19:00:57.903Z,6.70
2023-11-05T19:04:04.894Z,7.40
2023-11-05T19:07:12.801Z,6.30
2023-11-05T19:10:19.592Z,6.30
2023-11-05T19:13:27.660Z,5.60
2023-11-05T19:16:35.218Z,5.40
2023-11-05T19:19:42.435Z,5.70
2023-11-05T19:22:49.989Z,4.50
2023-11-05T19:25:57.470Z,4.50
2023-11-05T19:29:04.836Z,4.10
2023-11-05T19:32:12.716Z,3.90
2023-11-05T19:35:20.176Z,3.60
2023-11-05T19:38:27.042Z,3.20
2023-11-05T19:41:33.973Z,3.30
2023-11-05T19:44:41.374Z,3.20
2023-11-05T19:47:48.939Z,3.30
2023-11-05T19:50:56.818Z,3.10
2023-11-05T19:54:04.416Z,2.40
2023-11-05T19:57:12.365Z,2.80
2023-11-05T20:00:19.563Z,2.90
2023-11-05T20:03:27.424Z,3.10
2023-11-05T20:06:34.936Z,3.30
2023-11-05T20:09:42.165Z,3.10
2023-11-05T20:12:49.276Z,3.40
2023-11-05T20:15:56.797Z,3.20
2023-11-05T20:19:03.816Z,2.90
2023-11-05T20:22:11.237Z,2.50
2023-11-05T20:25:18.693Z,2.90
2023-11-05T20:28:26.166Z,3.20
2023-11-05T20:31:33.772Z,3.00
2023-11-05T20:34:41.030Z,3.00
2023-11-05T20:37:48.798Z,3.10
2023-11-05T20:40:56.277Z,3.00
2023-11-05T20:44:02.862Z,3.00
2023-11-05T20:47:10.451Z,2.80
2023-11-05T20:50:17.808Z,3.20
2023-11-05T20:53:24.922Z,3.40
2023-11-05T20:56:32.130Z,3.20
2023-11-05T20:59:39.853Z,3.30
2023-11-05T21:02:46.779Z,3.40
2023-11-05T21:05:53.900Z,3.40
2023-11-05T21:09:01.405Z,3.20
2023-11-05T21:12:08.117Z,3.20
2023-11-05T21:15:15.218Z,3.80
2023-11-05T21:18:23.046Z,3.50
2023-11-05T21:21:30.448Z,3.40
2023-11-05T21:24:38.590Z,3.60
2023-11-05T21:27:46.527Z,3.30
2023-11-05T21:30:54.565Z,2.80
2023-11-05T21:34:01.632Z,3.20
2023-11-05T21:37:09.397Z,3.40
2023-11-05T21:40:16.481Z,3.10
2023-11-05T21:43:23.581Z,2.50
2023-11-05T21:46:30.991Z,2.50
2023-11-05T21:49:38.462Z,2.10
2023-11-05T21:52:45.571Z,1.90
2023-11-05T21:55:52.829Z,2.00
2023-11-05T21:58:59.821Z,1.90
2023-11-05T22:02:07.061Z,2.60
2023-11-05T22:05:14.735Z,1.80
2023-11-05T22:08:22.355Z,1.80
2023-11-05T22:11:29.662Z,1.60
2023-11-05T22:14:37.256Z,2.00
2023-11-05T22:17:43.964Z,1.70
2023-11-05T22:20:54.181Z,1.80
2023-11-05T22:23:51.706Z,1.90
2023-11-05T22:26:58.797Z,1.40
2023-11-05T22:30:05.849Z,1.80
2023-11-05T22:33:12.831Z,1.30
2023-11-05T22:36:19.450Z,1.00
2023-11-05T22:39:26.751Z,1.50
2023-11-05T22:42:34.605Z,1.60
2023-11-05T22:45:41.153Z,1.60
2023-11-05T22:48:49.022Z,1.50
2023-11-05T22:51:56.018Z,1.40
2023-11-05T22:55:02.889Z,1.50
2023-11-05T22:58:09.888Z,1.40
2023-11-05T23:01:17.425Z,1.10
2023-11-05T23:04:25.093Z,1.10
2023-11-05T23:07:31.661Z,1.40
2023-11-05T23:10:38.766Z,1.50
2023-11-05T23:13:46.144Z,1.20
2023-11-05T23:16:54.052Z,1.20
2023-11-05T23:20:00.659Z,1.30
2023-11-05T23:23:08.006Z,1.20
2023-11-05T23:26:15.259Z,1.30
2023-11-05T23:29:22.724Z,1.90
2023-11-05T23:32:30.265Z,1.20
2023-11-05T23:35:37.633Z,1.80
2023-11-05T23:38:44.160Z,0.90
2023-11-05T23:41:52.341Z,1.30
2023-11-05T23:45:00.048Z,1.30
2023-11-05T23:48:07.336Z,1.10
2023-11-05T23:51:14.701Z,1.10
2023-11-05T23:54:21.990Z,1.50
2023-11-05T23:57:28.673Z,1.40
